Latest Weather Observations for Hamilton Island

IDQ60801

Issued at 3:35 am EST Tuesday 25 November 2014 (issued every 30 minutes, with the page automatically refreshed every 10 minutes)

About weather observations | Map of weather stations | Latest weather observations for QLD | Other Formats
Station Details ID: 033106 Name: HAMILTON ISLAND AIRPORT Lat: -20.37 Lon: 148.95 Height: 58.66 m
Data from the previous 72 hours. | See also: Recent months at Hamilton Island
Date/Time
EST
Temp
°C
App
Temp
°C
Dew
Point
Rel
Hum
%
Delta-T
°C
Wind Press
QNH
hPa
Press
MSL
hPa
Rain
since 9 am
mm
Dir
 
Spd
km/h
Gust
km/h
Spd
kts
Gust
kts
25/03:30am 24.9 27.5 21.2 80 2.4 NE 9 13 5 7 1012.9 - 0.0
25/03:00am 24.9 27.4 21.0 79 2.6 NE 9 15 5 8 1012.9 1012.5 0.0
25/02:30am 25.1 27.4 21.4 80 2.5 ENE 11 17 6 9 1012.9 - 0.0
25/02:00am 25.2 28.1 21.7 81 2.3 E 9 13 5 7 1013.2 - 0.0
25/01:30am 25.1 28.0 21.8 82 2.2 ENE 9 11 5 6 1013.3 - 0.0
25/01:00am 25.0 27.4 21.5 81 2.3 ENE 11 15 6 8 1013.5 - 0.0
25/12:30am 25.1 27.1 21.6 81 2.3 ENE 13 17 7 9 1013.7 - 0.0
25/12:00am 25.2 26.2 21.7 81 2.3 ENE 19 24 10 13 1014.2 1013.8 0.0
 
Date/Time
EST
Temp
°C
App
Temp
°C
Dew
Point
Rel
Hum
%
Delta-T
°C
Wind Press
QNH
hPa
Press
MSL
hPa
Rain
since 9 am
mm
Dir
 
Spd
km/h
Gust
km/h
Spd
kts
Gust
kts
24/11:49pm 25.3 26.6 21.6 80 2.5 ENE 17 20 9 11 1014.3 - 0.0
24/11:30pm 25.5 27.7 21.8 80 2.5 ENE 13 19 7 10 1014.6 - 0.0
24/11:26pm 25.5 27.3 21.8 80 2.5 ENE 15 19 8 10 1014.6 - 0.0
24/11:14pm 25.6 27.0 21.9 80 2.5 ENE 17 20 9 11 1014.6 - 0.0
24/11:00pm 25.6 27.0 21.9 80 2.5 E 17 24 9 13 1014.8 - 0.0
24/10:30pm 25.5 26.8 21.6 79 2.6 ENE 17 22 9 12 1014.8 - 0.0
24/10:12pm 25.6 26.5 21.5 78 2.7 ENE 19 28 10 15 1014.7 - 0.0
24/10:00pm 25.6 26.3 21.5 78 2.7 E 20 28 11 15 1014.6 - 0.0
24/09:53pm 25.6 25.5 21.5 78 2.7 E 24 30 13 16 1014.6 - 0.0
24/09:30pm 25.8 26.3 21.9 79 2.6 E 22 30 12 16 1014.8 - 0.0
24/09:28pm 25.7 26.1 21.8 79 2.6 E 22 30 12 16 1014.7 - 0.0
24/09:00pm 25.7 25.6 21.4 77 2.9 E 24 30 13 16 1014.4 1014.0 0.0
24/08:30pm 25.9 25.3 21.3 76 3.1 E 26 35 14 19 1014.1 - 0.0
24/08:00pm 25.9 25.3 22.0 79 2.6 E 28 33 15 18 1013.9 - 0.0
24/07:30pm 25.8 26.5 21.5 77 2.9 E 20 24 11 13 1013.8 - 0.0
24/07:00pm 25.7 25.4 21.1 76 3.0 E 24 33 13 18 1013.5 - 0.0
24/06:59pm 25.8 25.2 21.2 76 3.0 E 26 33 14 18 1013.5 - 0.0
24/06:42pm 25.8 26.1 21.5 77 2.9 E 22 30 12 16 1013.3 - 0.0
24/06:30pm 25.8 25.2 21.2 76 3.0 E 26 32 14 17 1013.2 - 0.0
24/06:00pm 26.0 24.6 21.2 75 3.2 E 30 33 16 18 1012.8 1012.4 0.0
24/05:31pm 26.2 24.9 22.1 78 2.8 E 32 35 17 19 1012.5 - 0.0
24/05:30pm 26.1 24.7 22.0 78 2.7 E 32 35 17 19 1012.4 - 0.0
24/05:00pm 26.2 24.9 22.5 80 2.5 ESE 33 37 18 20 1012.4 - 0.0
24/04:44pm 26.3 25.1 22.6 80 2.5 ESE 33 37 18 20 1012.5 - 0.0
24/04:30pm 26.5 25.9 22.6 79 2.6 ESE 30 35 16 19 1012.4 - 0.0
24/04:00pm 26.9 25.7 21.6 72 3.5 E 30 33 16 18 1012.5 - 0.0
24/03:30pm 27.7 27.1 22.0 71 3.8 E 28 32 15 17 1012.6 - 0.0
24/03:00pm 27.5 26.4 21.1 68 4.3 E 28 35 15 19 1012.7 1012.3 0.0
24/02:30pm 27.3 26.7 22.0 73 3.6 E 28 33 15 18 1012.9 - 0.0
24/02:00pm 28.0 27.1 21.5 67 4.3 E 28 32 15 17 1013.3 - 0.0
24/01:30pm 28.0 26.8 21.5 67 4.3 E 30 35 16 19 1013.6 - 0.0
24/01:00pm 28.3 27.5 22.3 70 4.1 E 30 33 16 18 1013.9 - 0.0
24/12:30pm 28.0 26.3 21.3 67 4.5 E 32 35 17 19 1014.2 - 0.0
24/12:00pm 27.6 27.0 21.9 71 3.8 E 28 32 15 17 1014.8 1014.5 0.0
24/11:30am 29.0 29.2 22.7 69 4.3 E 26 28 14 15 1015.1 - 0.0
24/11:00am 27.9 27.2 21.0 66 4.6 E 26 28 14 15 1015.3 - 0.0
24/10:30am 28.2 27.8 21.7 68 4.4 E 26 30 14 16 1015.5 - 0.0
24/10:00am 28.6 28.7 21.9 67 4.5 E 24 30 13 16 1015.8 - 0.0
24/09:30am 27.6 27.1 21.4 69 4.1 E 26 30 14 16 1015.8 - 0.0
24/09:00am 27.5 26.6 21.5 70 4.0 E 28 33 15 18 1015.7 1015.4 0.0
24/08:30am 27.9 27.6 22.6 73 3.6 E 28 33 15 18 1015.6 - 0.0
24/08:01am 27.3 27.4 22.5 75 3.3 E 26 32 14 17 1015.4 - 0.0
24/08:00am 27.1 26.9 22.1 74 3.4 E 26 32 14 17 1015.4 - 0.0
24/07:33am 27.1 26.7 22.3 75 3.2 E 28 32 15 17 1015.3 - 0.0
24/07:30am 26.8 26.3 22.2 76 3.1 E 28 32 15 17 1015.3 - 0.0
24/07:00am 26.6 27.3 21.6 74 3.3 E 20 26 11 14 1015.3 - 0.0
24/06:30am 25.9 27.9 21.6 77 2.9 ENE 13 17 7 9 1015.0 - 0.0
24/06:00am 25.4 26.7 21.7 80 2.5 ENE 17 20 9 11 1014.8 1014.5 0.0
24/05:52am 25.4 27.1 21.7 80 2.5 ENE 15 20 8 11 1014.8 - 0.0
24/05:30am 25.0 26.7 21.7 82 2.2 ENE 15 22 8 12 1014.5 - 0.0
24/05:27am 24.9 27.1 21.8 83 2.1 NE 13 22 7 12 1014.5 - 0.0
24/05:00am 24.6 27.5 21.7 84 1.9 ENE 9 13 5 7 1014.3 - 0.0
24/04:30am 24.9 26.9 22.2 85 1.8 E 15 19 8 10 1014.1 - 0.0
24/04:00am 24.8 27.4 21.9 84 1.9 NE 11 13 6 7 1014.1 - 0.0
24/03:30am 24.7 27.2 21.8 84 1.9 ENE 11 13 6 7 1014.0 - 0.0
24/03:00am 24.9 26.7 21.8 83 2.1 ENE 15 19 8 10 1013.9 1013.5 0.0
24/02:30am 25.1 27.8 22.2 84 1.9 ENE 11 15 6 8 1014.1 - 0.0
24/02:00am 25.0 27.6 21.9 83 2.1 ENE 11 13 6 7 1014.3 - 0.0
24/01:30am 25.1 27.0 22.0 83 2.1 ENE 15 17 8 9 1014.5 - 0.0
24/01:00am 25.2 26.6 21.9 82 2.2 E 17 20 9 11 1014.8 - 0.0
24/12:30am 25.2 26.6 21.9 82 2.2 E 17 22 9 12 1015.4 - 0.0
24/12:00am 25.4 26.5 22.3 83 2.1 ENE 20 28 11 15 1015.7 1015.4 0.0
 
Date/Time
EST
Temp
°C
App
Temp
°C
Dew
Point
Rel
Hum
%
Delta-T
°C
Wind Press
QNH
hPa
Press
MSL
hPa
Rain
since 9 am
mm
Dir
 
Spd
km/h
Gust
km/h
Spd
kts
Gust
kts
23/11:30pm 25.5 26.2 22.2 82 2.2 ENE 22 30 12 16 1015.7 - 0.0
23/11:20pm 25.5 26.5 22.2 82 2.2 ENE 20 28 11 15 1015.8 - 0.0
23/11:00pm 25.6 26.6 22.1 81 2.3 ENE 20 30 11 16 1016.0 - 0.0
23/10:48pm 25.6 26.0 22.5 83 2.1 E 24 32 13 17 1016.1 - 0.0
23/10:30pm 25.5 25.7 22.0 81 2.3 E 24 32 13 17 1015.9 - 0.0
23/10:00pm 25.5 26.4 22.0 81 2.3 E 20 26 11 14 1015.9 - 0.0
23/09:30pm 25.6 25.8 22.1 81 2.3 E 24 32 13 17 1015.6 - 0.0
23/09:14pm 25.7 26.0 22.2 81 2.4 E 24 33 13 18 1015.5 - 0.0
23/09:00pm 25.7 24.9 22.4 82 2.2 E 30 35 16 19 1015.2 1014.9 0.0
23/08:53pm 25.7 24.9 22.4 82 2.2 E 30 35 16 19 1015.1 - 0.0
23/08:52pm 25.6 24.7 22.1 81 2.3 E 30 35 16 19 1015.1 - 0.0
23/08:30pm 25.7 24.8 22.2 81 2.4 E 30 35 16 19 1015.0 - 0.0
23/08:26pm 25.7 25.0 21.8 79 2.6 E 28 35 15 19 1015.0 - 0.0
23/08:00pm 25.8 25.3 22.1 80 2.5 E 28 35 15 19 1014.8 - 0.0
23/07:36pm 25.8 25.2 21.9 79 2.6 E 28 35 15 19 1014.6 - 0.0
23/07:30pm 25.7 25.5 22.0 80 2.5 E 26 32 14 17 1014.5 - 0.0
23/07:00pm 25.9 25.3 22.6 82 2.2 E 30 37 16 20 1014.1 - 0.0
23/06:44pm 25.8 24.5 22.1 80 2.5 E 32 35 17 19 1014.0 - 0.0
23/06:30pm 25.8 24.9 22.1 80 2.5 E 30 35 16 19 1013.9 - 0.0
23/06:24pm 25.8 24.9 22.1 80 2.5 E 30 35 16 19 1013.8 - 0.0
23/06:00pm 26.0 25.1 22.1 79 2.6 E 30 35 16 19 1013.8 1013.4 0.0
23/05:52pm 26.1 25.3 22.4 80 2.5 E 30 35 16 19 1013.7 - 0.0
23/05:30pm 26.4 26.0 22.3 78 2.8 E 28 35 15 19 1013.7 - 0.0
23/05:00pm 26.6 25.7 22.2 77 3.0 E 30 33 16 18 1013.7 - 0.0
23/04:30pm 26.8 25.7 21.8 74 3.3 E 30 35 16 19 1013.8 - 0.0
23/04:00pm 26.9 26.4 22.1 75 3.2 E 28 33 15 18 1013.7 - 0.0
23/03:30pm 27.2 26.2 21.9 73 3.6 E 30 33 16 18 1013.9 - 0.0
23/03:00pm 27.2 26.1 21.7 72 3.7 E 30 33 16 18 1014.1 1013.7 0.0
23/02:30pm 27.5 26.0 21.8 71 3.8 E 32 37 17 20 1014.2 - 0.0
23/02:00pm 27.9 27.0 22.1 70 3.9 E 30 33 16 18 1014.5 - 0.0
23/01:30pm 27.8 27.3 22.1 71 3.8 E 28 32 15 17 1015.0 - 0.0
23/01:00pm 28.0 27.4 22.0 70 4.0 E 28 30 15 16 1015.3 - 0.0
23/12:30pm 28.0 27.1 21.5 67 4.3 E 28 32 15 17 1015.5 - 0.0
23/12:00pm 29.2 30.2 22.9 69 4.3 ESE 22 26 12 14 1015.8 1015.5 0.0
23/11:30am 28.1 28.6 21.9 69 4.2 E 22 26 12 14 1016.2 - 0.0
23/11:00am 28.2 28.9 22.2 70 4.1 E 22 28 12 15 1016.4 - 0.0
23/10:30am 28.8 29.1 22.3 68 4.4 ESE 24 28 13 15 1016.6 - 0.0
23/10:00am 28.6 29.5 21.9 67 4.5 ESE 20 24 11 13 1016.8 - 0.0
23/09:30am 27.7 28.4 21.5 69 4.1 E 20 28 11 15 1016.8 - 0.0
23/09:00am 28.2 29.1 22.0 69 4.2 E 20 24 11 13 1016.7 1016.4 0.0
23/08:30am 27.6 28.2 21.4 69 4.1 E 20 22 11 12 1016.6 - 0.0
23/08:00am 27.2 28.2 21.7 72 3.7 E 19 24 10 13 1016.4 - 0.0
23/07:45am 26.4 27.2 21.4 74 3.3 E 19 20 10 11 1016.2 - 0.0
23/07:30am 26.4 26.8 20.9 72 3.6 E 20 24 11 13 1016.0 - 0.0
23/07:19am 27.3 28.0 21.6 71 3.8 E 20 26 11 14 1015.9 - 0.0
23/07:00am 27.4 29.6 21.9 72 3.7 E 13 19 7 10 1015.8 - 0.0
23/06:30am 25.9 28.2 22.0 79 2.6 ENE 13 17 7 9 1015.7 - 0.0
23/06:00am 24.9 27.8 21.8 83 2.1 E 9 13 5 7 1015.3 1015.0 0.0
23/05:30am 24.6 27.3 22.1 86 1.7 ENE 11 13 6 7 1014.9 - 0.0
23/05:00am 24.3 27.7 22.0 87 1.5 NE 7 9 4 5 1014.4 - 0.0
23/04:30am 24.4 27.9 22.1 87 1.5 ENE 7 11 4 6 1014.2 - 0.0
23/04:00am 24.4 27.5 22.1 87 1.5 NE 9 11 5 6 1014.0 - 0.0
23/03:30am 24.4 27.6 21.7 85 1.8 NE 7 9 4 5 1014.0 - 0.0
23/03:00am 24.4 27.6 21.7 85 1.8 NE 7 9 4 5 1014.0 1013.6 0.0
23/02:30am 24.6 27.6 21.9 85 1.8 ENE 9 11 5 6 1014.0 - 0.0
23/02:00am 24.6 27.6 21.9 85 1.8 NE 9 13 5 7 1014.3 - 0.0
23/01:30am 24.7 27.3 22.0 85 1.8 ENE 11 13 6 7 1014.3 - 0.0
23/01:00am 24.8 27.5 22.1 85 1.8 ENE 11 13 6 7 1014.6 - 0.0
23/12:30am 24.9 26.8 22.0 84 1.9 ENE 15 17 8 9 1014.8 - 0.0
23/12:00am 24.9 26.8 22.0 84 1.9 ENE 15 19 8 10 1015.1 1014.8 0.0
 
Date/Time
EST
Temp
°C
App
Temp
°C
Dew
Point
Rel
Hum
%
Delta-T
°C
Wind Press
QNH
hPa
Press
MSL
hPa
Rain
since 9 am
mm
Dir
 
Spd
km/h
Gust
km/h
Spd
kts
Gust
kts
22/11:30pm 25.0 27.2 21.9 83 2.1 ENE 13 17 7 9 1015.5 - 0.0
22/11:00pm 25.1 27.0 22.0 83 2.1 ENE 15 17 8 9 1015.7 - 0.0
22/10:30pm 25.2 26.6 21.9 82 2.2 ENE 17 20 9 11 1015.8 - 0.0
22/10:00pm 25.2 26.6 21.9 82 2.2 ENE 17 20 9 11 1015.6 - 0.0
22/09:30pm 25.3 26.7 21.8 81 2.3 ENE 17 24 9 13 1015.3 - 0.0
22/09:00pm 25.4 26.5 21.9 81 2.3 ENE 19 24 10 13 1015.0 1014.7 0.0
22/08:30pm 25.4 27.1 21.7 80 2.5 ENE 15 20 8 11 1014.8 - 0.0
22/08:00pm 25.5 26.4 21.6 79 2.6 ENE 19 24 10 13 1014.5 - 0.0
22/07:30pm 25.6 26.5 21.5 78 2.7 ENE 19 24 10 13 1014.3 - 0.0
22/07:00pm 25.7 26.5 21.4 77 2.9 ENE 19 22 10 12 1013.9 - 0.0
22/06:30pm 25.9 27.0 21.3 76 3.1 ENE 17 28 9 15 1013.4 - 0.0
22/06:00pm 26.3 26.1 21.3 74 3.3 ENE 24 32 13 17 1013.0 1012.6 0.0
22/05:30pm 26.7 27.4 21.5 73 3.5 E 20 26 11 14 1012.8 - 0.0
22/05:00pm 27.1 27.4 21.6 72 3.7 E 22 30 12 16 1012.6 - 0.0
22/04:30pm 27.5 27.6 21.8 71 3.8 ENE 24 32 13 17 1012.3 - 0.0
22/04:00pm 27.3 27.0 21.8 72 3.7 E 26 32 14 17 1012.3 - 0.0
22/03:30pm 27.6 27.2 21.6 70 4.0 E 26 32 14 17 1012.5 - 0.0
22/03:00pm 27.5 27.4 22.2 73 3.6 E 26 32 14 17 1012.8 1012.4 0.0
22/02:30pm 27.2 27.1 22.2 74 3.4 E 26 30 14 16 1013.2 - 0.0
22/02:00pm 27.4 26.9 22.1 73 3.6 E 28 33 15 18 1013.7 - 0.0
22/01:30pm 27.7 27.1 22.0 71 3.8 E 28 32 15 17 1014.0 - 0.0
22/01:00pm 27.9 27.4 22.1 70 3.9 E 28 32 15 17 1014.3 - 0.0
22/12:30pm 27.8 27.9 22.5 73 3.6 E 26 32 14 17 1014.5 - 0.0
22/12:00pm 27.6 27.0 21.9 71 3.8 E 28 32 15 17 1014.9 1014.6 0.0
22/11:30am 27.9 27.4 22.1 70 3.9 ESE 28 30 15 16 1015.3 - 0.0
22/11:00am 28.1 27.8 21.9 69 4.2 ESE 26 30 14 16 1015.6 - 0.0
22/10:30am 27.5 27.3 22.7 75 3.3 E 28 30 15 16 1015.8 - 0.0
22/10:00am 28.5 28.8 23.0 72 3.8 E 26 30 14 16 1015.7 - 0.0
22/09:44am 27.9 28.3 22.4 72 3.7 ESE 24 28 13 15 1015.7 - 0.0
22/09:30am 27.0 28.0 22.2 75 3.2 ESE 20 24 11 13 1015.7 - 0.0
22/09:00am 26.5 27.9 21.9 76 3.1 ESE 17 20 9 11 1015.9 1015.6 0.0
22/08:39am 26.6 28.1 22.0 76 3.1 ESE 17 20 9 11 1016.0 - 0.0
22/08:30am 26.9 29.2 22.1 75 3.2 ESE 13 17 7 9 1015.9 - 0.0
22/08:00am 26.7 29.8 22.1 76 3.1 SE 9 13 5 7 1015.9 - 0.0
22/07:30am 26.9 30.1 21.6 72 3.5 ENE 7 9 4 5 1015.8 - 0.0
22/07:00am 26.5 29.4 21.7 75 3.2 NNE 9 15 5 8 1015.5 - 0.0
22/06:30am 26.0 29.0 21.2 75 3.2 NE 7 11 4 6 1015.1 - 0.0
22/06:00am 25.2 28.3 21.5 80 2.5 NNE 7 11 4 6 1014.8 1014.5 0.0
22/05:30am 24.4 27.4 21.3 83 2.0 N 7 9 4 5 1014.4 - 0.0
22/05:00am 24.2 27.3 21.5 85 1.8 N 7 7 4 4 1013.9 - 0.0
22/04:30am 24.3 28.8 21.6 85 1.8 CALM 0 0 0 0 1013.9 - 0.0
22/04:00am 24.3 28.4 21.6 85 1.8 W 2 7 1 4 1013.6 - 0.0

Other Formats:

Comma delimited format used in spreadsheet applications
http://www.bom.gov.au/fwo/IDQ60801/IDQ60801.94368.axf

JavaScript Object Notation format (JSON) in row-major order
http://www.bom.gov.au/fwo/IDQ60801/IDQ60801.94368.json